Time;durP1;ratioP1;P1;durP2;ratioP2;P2;SDS_P1;SDS_P2;PMS_P1;PMS_P2;Temp;Humidity;BMP_temperature;BMP_pressure;BME280_temperature;BME280_humidity;BME280_pressure;Samples;Min_cycle;Max_cycle;Signal;HPM_P1;HPM_P2
2023/06/22 00:01:52;;;;;;;45.17;30.83;;;;;;;;;;4967109;28;20046;-62
2023/06/22 00:04:18;;;;;;;44.30;30.07;;;;;;;;;;4969102;28;20043;-63
2023/06/22 00:06:44;;;;;;;43.77;31.87;;;;;;;;;;4968250;28;20077;-62
2023/06/22 00:09:10;;;;;;;47.67;32.87;;;;;;;;;;4965411;28;20103;-62
2023/06/22 00:11:37;;;;;;;66.30;41.53;;;;;;;;;;4966953;28;20039;-62
2023/06/22 00:14:03;;;;;;;59.97;41.00;;;;;;;;;;4967594;28;20058;-63
2023/06/22 00:16:29;;;;;;;59.63;39.33;;;;;;;;;;4967089;28;20129;-62
2023/06/22 00:18:55;;;;;;;75.90;48.33;;;;;;;;;;4967229;28;20134;-62
2023/06/22 00:21:21;;;;;;;68.93;46.67;;;;;;;;;;4967100;28;20043;-62
2023/06/22 00:23:47;;;;;;;70.77;44.67;;;;;;;;;;4968742;28;20085;-62
2023/06/22 00:26:14;;;;;;;79.93;48.83;;;;;;;;;;4965550;28;20078;-62
2023/06/22 00:28:40;;;;;;;81.23;50.87;;;;;;;;;;4965457;28;20066;-63
2023/06/22 00:31:06;;;;;;;77.13;48.93;;;;;;;;;;4966935;28;20039;-63
2023/06/22 00:33:32;;;;;;;82.20;49.77;;;;;;;;;;4967540;28;20463;-62
2023/06/22 00:35:58;;;;;;;77.40;49.47;;;;;;;;;;4968009;28;20038;-62
2023/06/22 00:38:24;;;;;;;76.67;50.53;;;;;;;;;;4966883;28;20417;-62
2023/06/22 00:40:50;;;;;;;84.67;51.13;;;;;;;;;;4966231;28;20042;-62
2023/06/22 00:43:16;;;;;;;97.53;57.33;;;;;;;;;;4967620;28;20073;-62
2023/06/22 00:45:42;;;;;;;93.43;56.07;;;;;;;;;;4966301;28;20046;-62
2023/06/22 00:48:08;;;;;;;98.60;56.63;;;;;;;;;;4966189;28;20561;-63
2023/06/22 00:50:35;;;;;;;95.70;56.27;;;;;;;;;;4967759;28;20049;-62
2023/06/22 00:53:08;;;;;;;100.30;58.27;;;;;;;;;;4966161;28;20108;-62
2023/06/22 00:55:38;;;;;;;90.53;54.88;;;;;;;;;;4967694;28;20420;-62
2023/06/22 00:58:05;;;;;;;94.30;57.23;;;;;;;;;;4966976;28;20055;-62
2023/06/22 01:00:32;;;;;;;96.87;54.13;;;;;;;;;;4965815;28;20097;-62
2023/06/22 01:02:58;;;;;;;86.57;53.20;;;;;;;;;;4968464;28;20390;-62
2023/06/22 01:05:24;;;;;;;93.87;54.10;;;;;;;;;;4965139;28;20466;-63
2023/06/22 01:07:57;;;;;;;80.47;50.00;;;;;;;;;;4966478;28;20122;-62
2023/06/22 01:10:23;;;;;;;82.43;48.10;;;;;;;;;;4966432;28;20410;-62
2023/06/22 01:12:51;;;;;;;72.67;47.47;;;;;;;;;;4951081;28;20043;-62
2023/06/22 01:15:26;;;;;;;78.57;47.23;;;;;;;;;;4966688;28;20043;-63
2023/06/22 01:17:53;;;;;;;85.70;48.13;;;;;;;;;;4967376;28;20047;-62
2023/06/22 01:20:21;;;;;;;81.30;48.73;;;;;;;;;;4966827;28;20101;-62
2023/06/22 01:23:06;;;;;;;72.90;48.00;;;;;;;;;;4967335;28;20039;-62
2023/06/22 01:25:47;;;;;;;103.90;62.40;;;;;;;;;;4967047;28;20034;-62
2023/06/22 01:28:19;;;;;;;107.63;62.03;;;;;;;;;;4962549;28;20464;-63
2023/06/22 01:30:46;;;;;;;105.50;59.90;;;;;;;;;;4957865;28;20085;-62
2023/06/22 01:33:13;;;;;;;93.87;56.33;;;;;;;;;;4967223;28;20047;-62
2023/06/22 01:35:40;;;;;;;109.63;62.70;;;;;;;;;;4966541;28;20086;-62
2023/06/22 01:38:06;;;;;;;109.20;63.23;;;;;;;;;;4967958;28;20077;-62
2023/06/22 01:40:33;;;;;;;93.20;55.63;;;;;;;;;;4971307;28;20094;-62
2023/06/22 01:43:00;;;;;;;84.83;51.80;;;;;;;;;;4970633;28;20038;-62
2023/06/22 01:45:27;;;;;;;84.23;52.63;;;;;;;;;;4970914;28;20043;-62
2023/06/22 01:47:54;;;;;;;77.50;49.43;;;;;;;;;;4970249;28;20043;-62
2023/06/22 01:50:20;;;;;;;92.23;59.43;;;;;;;;;;4969141;28;20539;-62
2023/06/22 01:52:46;;;;;;;87.60;55.77;;;;;;;;;;4970205;28;20094;-62
2023/06/22 01:55:12;;;;;;;74.27;49.90;;;;;;;;;;4969543;28;20058;-62
2023/06/22 01:57:39;;;;;;;94.83;55.50;;;;;;;;;;4954412;28;20054;-63
2023/06/22 02:00:11;;;;;;;93.13;56.17;;;;;;;;;;4970081;28;20054;-63
2023/06/22 02:02:43;;;;;;;123.97;69.33;;;;;;;;;;4970122;28;20568;-63
2023/06/22 02:05:10;;;;;;;169.93;62.13;;;;;;;;;;4970507;28;20755;-62
2023/06/22 02:07:42;;;;;;;118.10;55.13;;;;;;;;;;4970446;28;20047;-63
2023/06/22 02:10:08;;;;;;;82.57;51.40;;;;;;;;;;4968540;28;20098;-62
2023/06/22 02:12:35;;;;;;;89.53;54.63;;;;;;;;;;4969607;28;20533;-62
2023/06/22 02:15:02;;;;;;;67.10;45.73;;;;;;;;;;4968622;28;20137;-62
2023/06/22 02:17:28;;;;;;;82.03;51.17;;;;;;;;;;4969620;28;20174;-62
2023/06/22 02:19:54;;;;;;;74.33;51.33;;;;;;;;;;4971517;28;20051;-62
2023/06/22 02:22:20;;;;;;;128.10;72.43;;;;;;;;;;4970238;28;20039;-62
2023/06/22 02:24:46;;;;;;;116.93;64.17;;;;;;;;;;4969816;28;20477;-62
2023/06/22 02:27:12;;;;;;;128.70;71.27;;;;;;;;;;4969770;28;20047;-62
2023/06/22 02:29:38;;;;;;;101.23;60.37;;;;;;;;;;4969197;28;20584;-61
2023/06/22 02:32:04;;;;;;;654.40;81.83;;;;;;;;;;4969671;28;20105;-62
2023/06/22 02:34:30;;;;;;;154.00;62.00;;;;;;;;;;4970410;28;20082;-62
2023/06/22 02:36:56;;;;;;;115.53;50.53;;;;;;;;;;4969449;28;20777;-62
2023/06/22 02:39:23;;;;;;;76.67;44.03;;;;;;;;;;4969794;28;20039;-62
2023/06/22 02:41:50;;;;;;;70.83;47.50;;;;;;;;;;4968225;28;20066;-62
2023/06/22 02:44:16;;;;;;;78.20;51.37;;;;;;;;;;4968901;28;20535;-62
2023/06/22 02:46:42;;;;;;;75.43;48.77;;;;;;;;;;4970533;28;20500;-62
2023/06/22 02:49:09;;;;;;;61.83;43.03;;;;;;;;;;4968846;28;20050;-62
2023/06/22 02:51:35;;;;;;;80.27;50.03;;;;;;;;;;4970693;28;20134;-61
2023/06/22 02:54:01;;;;;;;64.67;43.77;;;;;;;;;;4969677;28;20051;-62
2023/06/22 02:56:30;;;;;;;84.43;52.07;;;;;;;;;;4969094;28;20070;-63
2023/06/22 02:59:00;;;;;;;92.33;56.63;;;;;;;;;;4971935;28;20054;-62
2023/06/22 03:01:27;;;;;;;80.13;51.60;;;;;;;;;;4970535;28;20493;-62
2023/06/22 03:03:54;;;;;;;116.70;65.67;;;;;;;;;;4969937;28;20069;-61
2023/06/22 03:06:23;;;;;;;134.50;64.30;;;;;;;;;;4970209;28;20054;-62
2023/06/22 03:08:50;;;;;;;133.53;61.57;;;;;;;;;;4970975;28;20063;-61
2023/06/22 03:11:16;;;;;;;319.10;61.47;;;;;;;;;;4971233;28;20133;-62
2023/06/22 03:13:42;;;;;;;188.17;57.60;;;;;;;;;;4968186;28;20072;-61
2023/06/22 03:16:08;;;;;;;70.03;46.20;;;;;;;;;;4971272;28;20051;-62
2023/06/22 03:18:34;;;;;;;100.07;49.97;;;;;;;;;;4971617;28;20039;-62
2023/06/22 03:21:02;;;;;;;115.67;45.20;;;;;;;;;;4971227;28;20579;-63
2023/06/22 03:23:28;;;;;;;123.50;52.53;;;;;;;;;;4970692;28;20047;-62
2023/06/22 03:25:55;;;;;;;101.93;53.30;;;;;;;;;;4953814;28;20054;-62
2023/06/22 03:28:21;;;;;;;315.43;78.00;;;;;;;;;;4970682;28;20047;-62
2023/06/22 03:30:48;;;;;;;67.53;48.27;;;;;;;;;;4970224;28;20043;-62
2023/06/22 03:33:14;;;;;;;61.43;46.97;;;;;;;;;;4970516;28;20062;-62
2023/06/22 03:35:40;;;;;;;70.40;47.63;;;;;;;;;;4970919;28;20054;-62
2023/06/22 03:38:06;;;;;;;76.63;50.17;;;;;;;;;;4970557;28;20473;-62
2023/06/22 03:40:32;;;;;;;78.83;51.07;;;;;;;;;;4954478;28;20043;-62
2023/06/22 03:42:58;;;;;;;83.37;54.40;;;;;;;;;;4950177;28;20155;-62
2023/06/22 03:45:24;;;;;;;74.43;50.83;;;;;;;;;;4951001;29;20043;-62
2023/06/22 03:47:50;;;;;;;75.13;48.13;;;;;;;;;;4951223;29;20043;-62
2023/06/22 03:50:16;;;;;;;93.33;56.07;;;;;;;;;;4951174;29;20724;-62
2023/06/22 03:52:42;;;;;;;94.40;53.17;;;;;;;;;;4950793;29;20414;-62
2023/06/22 03:55:08;;;;;;;370.27;54.97;;;;;;;;;;4949665;29;20394;-62
2023/06/22 03:57:34;;;;;;;222.83;49.40;;;;;;;;;;4950080;28;20051;-63
2023/06/22 04:00:05;;;;;;;191.47;47.90;;;;;;;;;;4950116;28;20438;-62
2023/06/22 04:02:31;;;;;;;82.03;46.40;;;;;;;;;;4950544;28;20059;-62
2023/06/22 04:04:57;;;;;;;48.03;37.67;;;;;;;;;;4950541;29;20047;-62
2023/06/22 04:07:23;;;;;;;69.63;47.80;;;;;;;;;;4946875;28;20421;-62
2023/06/22 04:09:49;;;;;;;110.80;61.93;;;;;;;;;;4949019;29;20252;-62
2023/06/22 04:12:15;;;;;;;101.13;59.63;;;;;;;;;;4949596;29;20181;-62
2023/06/22 04:14:41;;;;;;;93.57;57.67;;;;;;;;;;4951022;29;20113;-62
2023/06/22 04:17:07;;;;;;;120.23;63.37;;;;;;;;;;4950076;29;20057;-62
2023/06/22 04:19:33;;;;;;;141.23;65.40;;;;;;;;;;4949196;29;20054;-63
2023/06/22 04:21:59;;;;;;;131.23;69.20;;;;;;;;;;4950529;29;20106;-62
2023/06/22 04:24:25;;;;;;;123.20;67.87;;;;;;;;;;4950565;29;20051;-62
2023/06/22 04:26:54;;;;;;;133.50;73.97;;;;;;;;;;4950484;29;20043;-63
2023/06/22 04:29:20;;;;;;;140.30;74.60;;;;;;;;;;4950315;29;20142;-63
2023/06/22 04:31:50;;;;;;;136.87;71.87;;;;;;;;;;4950193;29;20122;-62
2023/06/22 04:34:16;;;;;;;113.43;66.70;;;;;;;;;;4947717;29;20055;-63
2023/06/22 04:36:43;;;;;;;127.53;70.60;;;;;;;;;;4949966;29;20524;-62
2023/06/22 04:39:12;;;;;;;120.10;68.77;;;;;;;;;;4950622;29;20087;-62
2023/06/22 04:41:42;;;;;;;173.73;82.90;;;;;;;;;;4950166;29;20055;-62
2023/06/22 04:44:23;;;;;;;159.80;79.50;;;;;;;;;;4948079;28;20047;-62
2023/06/22 04:46:53;;;;;;;157.63;81.17;;;;;;;;;;4950513;29;20051;-62
2023/06/22 04:49:19;;;;;;;160.43;81.90;;;;;;;;;;4950110;29;20039;-62
2023/06/22 04:51:45;;;;;;;175.77;87.73;;;;;;;;;;4950006;29;20058;-62
2023/06/22 04:54:11;;;;;;;149.00;77.90;;;;;;;;;;4949964;29;20058;-62
2023/06/22 04:56:40;;;;;;;160.13;78.63;;;;;;;;;;4948794;29;20106;-62
2023/06/22 04:59:07;;;;;;;170.67;85.33;;;;;;;;;;4950082;29;20047;-62
2023/06/22 05:01:34;;;;;;;182.10;88.63;;;;;;;;;;4949512;29;20051;-62
2023/06/22 05:04:02;;;;;;;191.00;95.50;;;;;;;;;;4950109;29;20413;-62
2023/06/22 05:06:28;;;;;;;214.30;99.07;;;;;;;;;;4949088;29;20066;-63
2023/06/22 05:08:58;;;;;;;218.47;98.37;;;;;;;;;;4945286;29;20059;-62
2023/06/22 05:11:28;;;;;;;207.67;97.47;;;;;;;;;;4950035;28;20047;-62
2023/06/22 05:13:54;;;;;;;214.17;102.07;;;;;;;;;;4952974;28;20047;-62
2023/06/22 05:16:24;;;;;;;231.73;104.83;;;;;;;;;;4952986;29;20051;-62
2023/06/22 05:18:51;;;;;;;212.20;102.83;;;;;;;;;;4952861;28;20047;-62
2023/06/22 05:21:17;;;;;;;187.77;98.47;;;;;;;;;;4954103;28;20051;-62
2023/06/22 05:23:43;;;;;;;214.70;101.83;;;;;;;;;;4953747;29;20046;-62
2023/06/22 05:26:10;;;;;;;211.47;99.30;;;;;;;;;;4953414;29;20067;-62
2023/06/22 05:28:36;;;;;;;198.40;95.33;;;;;;;;;;4952418;28;20054;-63
2023/06/22 05:31:02;;;;;;;167.17;88.40;;;;;;;;;;4954044;29;20059;-65
2023/06/22 05:33:28;;;;;;;179.00;91.13;;;;;;;;;;4953990;29;20103;-62
2023/06/22 05:35:54;;;;;;;180.13;92.47;;;;;;;;;;4954199;29;20091;-62
2023/06/22 05:38:20;;;;;;;175.43;90.50;;;;;;;;;;4953601;29;20043;-62
2023/06/22 05:40:46;;;;;;;156.40;85.43;;;;;;;;;;4953874;29;20051;-62
2023/06/22 05:43:12;;;;;;;135.97;78.53;;;;;;;;;;4953299;29;20497;-62
2023/06/22 05:45:38;;;;;;;132.67;77.10;;;;;;;;;;4952815;29;20071;-62
2023/06/22 05:48:04;;;;;;;117.23;69.00;;;;;;;;;;4953066;28;20051;-63
2023/06/22 05:50:30;;;;;;;129.40;75.30;;;;;;;;;;4952497;28;20055;-62
2023/06/22 05:52:56;;;;;;;122.67;72.73;;;;;;;;;;4952371;28;20082;-62
2023/06/22 05:55:22;;;;;;;121.23;73.33;;;;;;;;;;4953498;29;20536;-62
2023/06/22 05:57:48;;;;;;;117.33;69.83;;;;;;;;;;4953362;29;20043;-62
2023/06/22 06:00:14;;;;;;;104.53;67.17;;;;;;;;;;4953362;29;20066;-63
2023/06/22 06:02:43;;;;;;;97.53;61.63;;;;;;;;;;4952670;28;20097;-62
2023/06/22 06:05:10;;;;;;;89.53;61.80;;;;;;;;;;4952805;28;20097;-63
2023/06/22 06:07:37;;;;;;;99.93;62.80;;;;;;;;;;4957200;28;20096;-62
2023/06/22 06:10:04;;;;;;;93.13;60.07;;;;;;;;;;4972625;28;20110;-62
2023/06/22 06:12:30;;;;;;;86.60;57.50;;;;;;;;;;4968525;28;20054;-62
2023/06/22 06:14:56;;;;;;;87.20;58.17;;;;;;;;;;4952883;29;20434;-62
2023/06/22 06:17:22;;;;;;;80.80;54.00;;;;;;;;;;4953124;29;20053;-62
2023/06/22 06:19:48;;;;;;;76.93;47.70;;;;;;;;;;4956870;28;20084;-62
2023/06/22 06:22:14;;;;;;;63.97;46.47;;;;;;;;;;4960010;28;20046;-62
2023/06/22 06:24:40;;;;;;;60.80;44.93;;;;;;;;;;4970691;28;20055;-63
2023/06/22 06:27:06;;;;;;;60.00;45.67;;;;;;;;;;4971158;28;20050;-62
2023/06/22 06:29:33;;;;;;;50.40;40.27;;;;;;;;;;4957487;28;20063;-63
2023/06/22 06:31:59;;;;;;;51.07;41.00;;;;;;;;;;4952650;29;20039;-62
2023/06/22 06:34:25;;;;;;;50.97;39.97;;;;;;;;;;4952324;29;20587;-62
2023/06/22 06:36:51;;;;;;;44.07;36.07;;;;;;;;;;4952514;29;20090;-62
2023/06/22 06:39:17;;;;;;;47.63;37.33;;;;;;;;;;4952752;29;20606;-62
2023/06/22 06:41:43;;;;;;;45.60;36.97;;;;;;;;;;4952314;29;20043;-62
2023/06/22 06:44:09;;;;;;;38.27;32.67;;;;;;;;;;4951536;29;20047;-62
2023/06/22 06:46:35;;;;;;;37.80;32.07;;;;;;;;;;4951512;29;20047;-62
2023/06/22 06:49:01;;;;;;;36.33;30.97;;;;;;;;;;4952495;28;20047;-62
2023/06/22 06:51:27;;;;;;;32.03;28.47;;;;;;;;;;4961002;28;20042;-62
2023/06/22 06:53:53;;;;;;;32.00;28.10;;;;;;;;;;4971441;28;20137;-62
2023/06/22 06:56:19;;;;;;;32.27;28.77;;;;;;;;;;4971248;28;20096;-62
2023/06/22 06:58:45;;;;;;;32.73;26.37;;;;;;;;;;4971254;28;20050;-62
2023/06/22 07:01:12;;;;;;;29.03;24.50;;;;;;;;;;4971075;28;20049;-62
2023/06/22 07:03:38;;;;;;;30.50;25.97;;;;;;;;;;4970893;28;20042;-62
2023/06/22 07:06:04;;;;;;;27.57;24.60;;;;;;;;;;4971117;28;20097;-62
2023/06/22 07:08:30;;;;;;;27.73;22.97;;;;;;;;;;4970786;28;20062;-62
2023/06/22 07:10:56;;;;;;;23.90;20.80;;;;;;;;;;4970837;28;20740;-62
2023/06/22 07:13:22;;;;;;;24.33;20.07;;;;;;;;;;4971087;28;20054;-62
2023/06/22 07:15:48;;;;;;;21.13;18.93;;;;;;;;;;4970830;28;20105;-62
2023/06/22 07:18:14;;;;;;;22.37;19.23;;;;;;;;;;4971222;28;20047;-62
2023/06/22 07:20:41;;;;;;;21.77;19.47;;;;;;;;;;4971261;28;20074;-62
2023/06/22 07:23:07;;;;;;;19.17;16.63;;;;;;;;;;4970894;28;20062;-62
2023/06/22 07:25:33;;;;;;;20.03;16.93;;;;;;;;;;4971280;28;20046;-62
2023/06/22 07:28:01;;;;;;;20.93;16.20;;;;;;;;;;4953841;28;20046;-62
2023/06/22 07:30:27;;;;;;;19.43;17.37;;;;;;;;;;4971047;28;20112;-63
2023/06/22 07:32:53;;;;;;;20.67;15.97;;;;;;;;;;4970129;28;20047;-62
2023/06/22 07:35:19;;;;;;;18.53;16.03;;;;;;;;;;4968320;28;20505;-62
2023/06/22 07:37:45;;;;;;;21.27;14.77;;;;;;;;;;4970178;28;20175;-63
2023/06/22 07:40:11;;;;;;;17.33;13.93;;;;;;;;;;4970514;28;20390;-62
2023/06/22 07:42:37;;;;;;;17.47;14.70;;;;;;;;;;4970447;28;20050;-62
2023/06/22 07:45:04;;;;;;;15.17;13.57;;;;;;;;;;4969489;28;20122;-62
2023/06/22 07:47:33;;;;;;;14.57;11.77;;;;;;;;;;4968486;28;20042;-62
2023/06/22 07:50:01;;;;;;;15.17;13.00;;;;;;;;;;4968542;28;20051;-62
2023/06/22 07:52:27;;;;;;;14.00;11.73;;;;;;;;;;4968289;28;20051;-63
2023/06/22 07:54:53;;;;;;;15.70;13.30;;;;;;;;;;4967774;28;20046;-63
2023/06/22 07:57:19;;;;;;;13.57;10.43;;;;;;;;;;4968203;28;20097;-63
2023/06/22 07:59:45;;;;;;;11.53;10.10;;;;;;;;;;4968584;28;20042;-62
2023/06/22 08:02:11;;;;;;;12.93;10.27;;;;;;;;;;4969856;28;20051;-63
2023/06/22 08:04:37;;;;;;;10.18;9.13;;;;;;;;;;4969492;28;20043;-62
2023/06/22 08:07:03;;;;;;;14.15;10.32;;;;;;;;;;4970069;28;20051;-63
2023/06/22 08:09:30;;;;;;;11.05;9.35;;;;;;;;;;4969735;28;20054;-62
2023/06/22 08:11:56;;;;;;;10.25;9.13;;;;;;;;;;4969773;28;20046;-62
2023/06/22 08:14:26;;;;;;;10.23;8.10;;;;;;;;;;4970147;28;20047;-62
2023/06/22 08:16:52;;;;;;;13.02;8.48;;;;;;;;;;4969532;28;20096;-62
2023/06/22 08:19:18;;;;;;;16.25;9.60;;;;;;;;;;4969465;28;20055;-62
2023/06/22 08:21:44;;;;;;;10.93;7.88;;;;;;;;;;4969711;28;20061;-62
2023/06/22 08:24:10;;;;;;;9.35;8.35;;;;;;;;;;4969649;28;20042;-62
2023/06/22 08:26:37;;;;;;;10.10;7.70;;;;;;;;;;4969871;28;20046;-62
2023/06/22 08:29:06;;;;;;;12.60;6.85;;;;;;;;;;4968965;28;20066;-63
2023/06/22 08:31:35;;;;;;;10.45;7.88;;;;;;;;;;4969651;28;20057;-62
2023/06/22 08:34:04;;;;;;;10.63;7.43;;;;;;;;;;4969216;28;20081;-63
2023/06/22 08:36:32;;;;;;;8.63;6.93;;;;;;;;;;4969303;28;20060;-62
2023/06/22 08:39:01;;;;;;;9.25;7.47;;;;;;;;;;4968978;28;20077;-62
2023/06/22 08:41:27;;;;;;;10.68;6.82;;;;;;;;;;4969380;28;20055;-63
2023/06/22 08:43:53;;;;;;;9.48;6.32;;;;;;;;;;4969127;28;20050;-62
2023/06/22 08:46:23;;;;;;;9.55;7.03;;;;;;;;;;4969148;28;20510;-62
2023/06/22 08:48:50;;;;;;;10.82;6.32;;;;;;;;;;4968567;28;20053;-63
2023/06/22 08:51:16;;;;;;;10.95;6.72;;;;;;;;;;4969750;28;20460;-63
2023/06/22 08:53:44;;;;;;;9.25;6.30;;;;;;;;;;4969408;28;20046;-63
2023/06/22 08:56:10;;;;;;;12.25;7.30;;;;;;;;;;4968777;28;20086;-63
2023/06/22 08:58:36;;;;;;;8.70;6.32;;;;;;;;;;4969291;28;20078;-63
2023/06/22 09:01:02;;;;;;;9.05;6.57;;;;;;;;;;4969413;28;20039;-62
2023/06/22 09:03:28;;;;;;;9.40;6.20;;;;;;;;;;4969050;28;20054;-62
2023/06/22 09:05:55;;;;;;;7.28;5.95;;;;;;;;;;4968698;28;20051;-63
2023/06/22 09:08:21;;;;;;;7.10;5.82;;;;;;;;;;4969436;28;20050;-63
2023/06/22 09:10:47;;;;;;;8.65;5.53;;;;;;;;;;4969372;28;20055;-63
2023/06/22 09:13:13;;;;;;;9.43;5.63;;;;;;;;;;4968988;28;20175;-63
2023/06/22 09:15:39;;;;;;;11.52;6.57;;;;;;;;;;4968775;28;20050;-63
2023/06/22 09:18:05;;;;;;;8.38;5.07;;;;;;;;;;4969026;28;20043;-63
2023/06/22 09:20:31;;;;;;;10.00;6.55;;;;;;;;;;4968842;28;20269;-63
2023/06/22 09:22:57;;;;;;;6.25;5.10;;;;;;;;;;4968451;28;20519;-63
2023/06/22 09:25:23;;;;;;;7.53;5.72;;;;;;;;;;4969124;28;20050;-63
2023/06/22 09:27:50;;;;;;;8.50;6.30;;;;;;;;;;4968602;28;20067;-63
2023/06/22 09:30:16;;;;;;;8.95;5.55;;;;;;;;;;4969065;28;20094;-63
2023/06/22 09:32:43;;;;;;;7.30;5.63;;;;;;;;;;4968618;28;20480;-63
2023/06/22 09:35:09;;;;;;;8.68;6.22;;;;;;;;;;4968884;28;20441;-63
2023/06/22 09:37:35;;;;;;;9.30;7.28;;;;;;;;;;4969060;28;20050;-63
2023/06/22 09:40:06;;;;;;;6.82;4.97;;;;;;;;;;4968410;28;20178;-63
2023/06/22 09:42:33;;;;;;;5.95;5.10;;;;;;;;;;4967533;28;20050;-63
2023/06/22 09:45:01;;;;;;;6.80;5.00;;;;;;;;;;4968767;28;20090;-63
2023/06/22 09:47:27;;;;;;;8.65;5.68;;;;;;;;;;4968746;28;20505;-63
2023/06/22 09:49:55;;;;;;;6.95;5.40;;;;;;;;;;4968806;28;20078;-63
2023/06/22 09:52:21;;;;;;;8.45;5.93;;;;;;;;;;4968377;28;20051;-63
2023/06/22 09:54:47;;;;;;;9.45;6.20;;;;;;;;;;4968874;28;20100;-63
2023/06/22 09:57:13;;;;;;;7.65;5.38;;;;;;;;;;4968774;28;20043;-64
2023/06/22 09:59:42;;;;;;;6.72;5.32;;;;;;;;;;4970181;28;20039;-63
2023/06/22 10:02:08;;;;;;;7.68;5.35;;;;;;;;;;4972222;28;20054;-63
2023/06/22 10:04:35;;;;;;;9.30;5.20;;;;;;;;;;4972434;28;20066;-63
2023/06/22 10:07:01;;;;;;;9.57;6.65;;;;;;;;;;4971680;28;20038;-63
2023/06/22 10:09:27;;;;;;;7.63;5.13;;;;;;;;;;4972046;28;20062;-63
2023/06/22 10:11:53;;;;;;;8.02;5.45;;;;;;;;;;4972318;28;20035;-63
2023/06/22 10:14:19;;;;;;;9.43;5.60;;;;;;;;;;4972110;28;20065;-63
2023/06/22 10:16:45;;;;;;;9.05;5.30;;;;;;;;;;4971523;28;20142;-63
2023/06/22 10:19:11;;;;;;;6.95;4.88;;;;;;;;;;4972017;28;20679;-63
2023/06/22 10:21:37;;;;;;;8.85;5.30;;;;;;;;;;4972209;28;20047;-63
2023/06/22 10:24:05;;;;;;;7.22;5.35;;;;;;;;;;4971873;28;20102;-63
2023/06/22 10:26:32;;;;;;;6.28;4.65;;;;;;;;;;4971301;28;20457;-63
2023/06/22 10:28:58;;;;;;;6.30;5.28;;;;;;;;;;4971658;28;20134;-63
2023/06/22 10:31:24;;;;;;;8.02;5.78;;;;;;;;;;4971718;28;20509;-63
2023/06/22 10:33:50;;;;;;;7.88;5.75;;;;;;;;;;4971081;28;20051;-63
2023/06/22 10:36:16;;;;;;;7.55;4.80;;;;;;;;;;4971595;28;20043;-65
2023/06/22 10:38:42;;;;;;;8.52;5.65;;;;;;;;;;4971734;28;20126;-61
2023/06/22 10:41:08;;;;;;;8.60;5.60;;;;;;;;;;4971384;28;20043;-61
2023/06/22 10:43:34;;;;;;;7.25;5.10;;;;;;;;;;4971526;28;20093;-61
2023/06/22 10:46:00;;;;;;;8.60;5.10;;;;;;;;;;4971696;28;20082;-61
2023/06/22 10:48:26;;;;;;;6.65;5.95;;;;;;;;;;4970944;28;20130;-61
2023/06/22 10:50:53;;;;;;;6.75;5.65;;;;;;;;;;4971323;28;20050;-62
2023/06/22 10:53:19;;;;;;;7.22;5.72;;;;;;;;;;4971222;28;20054;-61
2023/06/22 10:55:45;;;;;;;7.97;5.22;;;;;;;;;;4971612;28;20437;-61
2023/06/22 10:58:11;;;;;;;6.30;5.70;;;;;;;;;;4970787;28;20077;-61
2023/06/22 11:00:37;;;;;;;6.40;4.80;;;;;;;;;;4971184;28;20102;-61
2023/06/22 11:03:02;;;;;;;6.10;5.10;;;;;;;;;;4968588;28;20034;-61
2023/06/22 11:05:28;;;;;;;6.68;5.72;;;;;;;;;;4970510;28;20049;-61
2023/06/22 11:07:54;;;;;;;7.07;5.43;;;;;;;;;;4970695;28;20055;-62
2023/06/22 11:10:20;;;;;;;6.53;5.00;;;;;;;;;;4970705;28;20596;-62
2023/06/22 11:12:46;;;;;;;5.93;5.30;;;;;;;;;;4960134;28;20050;-61
2023/06/22 11:15:12;;;;;;;5.75;4.88;;;;;;;;;;4951031;29;20498;-61
2023/06/22 11:17:38;;;;;;;6.95;5.15;;;;;;;;;;4951572;29;20051;-62
2023/06/22 11:20:10;;;;;;;6.88;4.63;;;;;;;;;;4951864;29;20553;-61
2023/06/22 11:22:36;;;;;;;6.63;4.30;;;;;;;;;;4952017;29;20055;-61
2023/06/22 11:25:02;;;;;;;6.60;4.75;;;;;;;;;;4952055;29;20311;-61
2023/06/22 11:27:28;;;;;;;6.82;5.43;;;;;;;;;;4951375;28;20537;-61
2023/06/22 11:29:54;;;;;;;8.85;5.47;;;;;;;;;;4952012;29;20189;-61
2023/06/22 11:32:20;;;;;;;8.88;5.95;;;;;;;;;;4951563;29;20051;-61
2023/06/22 11:34:46;;;;;;;6.53;5.35;;;;;;;;;;4951768;29;20328;-61
2023/06/22 11:37:12;;;;;;;8.98;5.55;;;;;;;;;;4951723;29;20051;-61
2023/06/22 11:39:38;;;;;;;7.65;6.43;;;;;;;;;;4955663;28;20051;-61
2023/06/22 11:42:04;;;;;;;16.10;7.05;;;;;;;;;;4970732;28;20129;-62
2023/06/22 11:44:30;;;;;;;8.43;6.35;;;;;;;;;;4970527;28;20523;-62
2023/06/22 11:46:56;;;;;;;8.05;5.57;;;;;;;;;;4970244;28;20069;-63
2023/06/22 11:49:22;;;;;;;7.97;5.50;;;;;;;;;;4970084;28;20043;-63
2023/06/22 11:51:48;;;;;;;6.30;5.55;;;;;;;;;;4970277;28;20047;-63
2023/06/22 11:54:14;;;;;;;6.93;5.10;;;;;;;;;;4968727;28;20066;-63
2023/06/22 11:56:40;;;;;;;7.80;5.22;;;;;;;;;;4967351;28;20070;-63
2023/06/22 11:59:06;;;;;;;7.20;5.32;;;;;;;;;;4951204;29;20074;-63
2023/06/22 12:01:33;;;;;;;10.65;5.72;;;;;;;;;;4951016;29;20494;-63
2023/06/22 12:03:59;;;;;;;8.80;5.68;;;;;;;;;;4963435;28;20050;-63
2023/06/22 12:06:24;;;;;;;10.00;5.75;;;;;;;;;;4970337;28;20564;-63
2023/06/22 12:08:50;;;;;;;8.40;5.07;;;;;;;;;;4953660;28;20059;-63
2023/06/22 12:11:16;;;;;;;6.35;5.68;;;;;;;;;;4950172;29;20047;-62
2023/06/22 12:13:42;;;;;;;6.97;5.10;;;;;;;;;;4950719;29;20134;-63
2023/06/22 12:16:08;;;;;;;7.32;5.70;;;;;;;;;;4949514;29;20051;-63
2023/06/22 12:18:34;;;;;;;8.38;6.25;;;;;;;;;;4950046;29;20051;-62
2023/06/22 12:21:00;;;;;;;8.75;5.57;;;;;;;;;;4946339;29;20043;-62
2023/06/22 12:23:26;;;;;;;7.03;6.35;;;;;;;;;;4950335;28;20091;-62
2023/06/22 12:25:52;;;;;;;7.57;5.32;;;;;;;;;;4949518;29;20082;-63
2023/06/22 12:28:18;;;;;;;8.10;6.47;;;;;;;;;;4949921;29;20166;-62
2023/06/22 12:30:44;;;;;;;8.82;5.82;;;;;;;;;;4949743;29;20069;-62
2023/06/22 12:33:10;;;;;;;9.93;6.20;;;;;;;;;;4950017;29;20039;-62
2023/06/22 12:35:36;;;;;;;7.65;5.72;;;;;;;;;;4950294;29;20131;-63
2023/06/22 12:38:03;;;;;;;7.55;5.68;;;;;;;;;;4950099;29;20128;-63
2023/06/22 12:40:29;;;;;;;8.00;5.30;;;;;;;;;;4949515;29;20110;-63
2023/06/22 12:42:55;;;;;;;8.38;6.00;;;;;;;;;;4950385;29;20047;-63
2023/06/22 12:45:21;;;;;;;8.13;6.20;;;;;;;;;;4949723;29;20066;-63
2023/06/22 12:47:47;;;;;;;6.50;5.15;;;;;;;;;;4950071;29;20055;-63
2023/06/22 12:50:13;;;;;;;7.03;6.28;;;;;;;;;;4950280;29;20043;-63
2023/06/22 12:52:40;;;;;;;6.38;5.40;;;;;;;;;;4949530;29;20051;-63
2023/06/22 12:55:07;;;;;;;8.82;6.15;;;;;;;;;;4950163;29;20094;-63
2023/06/22 12:57:33;;;;;;;9.60;5.97;;;;;;;;;;4949998;29;20047;-63
2023/06/22 13:00:00;;;;;;;8.38;6.00;;;;;;;;;;4950182;29;20053;-63
2023/06/22 13:02:26;;;;;;;8.93;6.40;;;;;;;;;;4950004;29;20058;-63
2023/06/22 13:04:52;;;;;;;7.93;5.47;;;;;;;;;;4949791;29;20054;-63
2023/06/22 13:07:18;;;;;;;9.00;6.15;;;;;;;;;;4949358;28;20067;-63
2023/06/22 13:09:46;;;;;;;8.38;5.95;;;;;;;;;;4950272;29;20110;-63
2023/06/22 13:12:12;;;;;;;8.38;5.85;;;;;;;;;;4949817;29;20078;-63
2023/06/22 13:14:38;;;;;;;8.10;5.60;;;;;;;;;;4949645;29;20592;-62
2023/06/22 13:17:04;;;;;;;9.15;5.53;;;;;;;;;;4950035;29;20047;-62
2023/06/22 13:19:32;;;;;;;5.32;4.30;;;;;;;;;;4949617;29;20075;-62
2023/06/22 13:21:58;;;;;;;6.28;5.65;;;;;;;;;;4949626;29;20510;-62
2023/06/22 13:24:24;;;;;;;5.15;4.60;;;;;;;;;;4949639;29;20082;-62
2023/06/22 13:26:53;;;;;;;7.63;5.32;;;;;;;;;;4948430;29;20086;-63
2023/06/22 13:29:19;;;;;;;5.90;4.68;;;;;;;;;;4949184;29;20074;-62
2023/06/22 13:31:45;;;;;;;6.25;4.82;;;;;;;;;;4950070;29;20047;-63
2023/06/22 13:34:12;;;;;;;9.63;5.55;;;;;;;;;;4951321;28;20503;-62
2023/06/22 13:36:38;;;;;;;8.77;5.70;;;;;;;;;;4953650;29;20087;-63
2023/06/22 13:39:04;;;;;;;7.43;5.60;;;;;;;;;;4953911;29;20098;-63
2023/06/22 13:41:30;;;;;;;6.07;4.50;;;;;;;;;;4953848;29;20054;-62
2023/06/22 13:43:56;;;;;;;10.63;6.97;;;;;;;;;;4951048;29;20134;-62
2023/06/22 13:46:22;;;;;;;5.97;5.32;;;;;;;;;;4953625;29;20127;-62
2023/06/22 13:48:48;;;;;;;8.23;5.93;;;;;;;;;;4953665;29;20054;-63
2023/06/22 13:51:14;;;;;;;11.85;6.93;;;;;;;;;;4952570;29;20082;-63
2023/06/22 13:53:40;;;;;;;9.63;6.38;;;;;;;;;;4953440;29;20043;-62
2023/06/22 13:56:06;;;;;;;8.93;6.00;;;;;;;;;;4953252;29;20071;-63
2023/06/22 13:58:32;;;;;;;7.40;5.18;;;;;;;;;;4953434;29;20498;-63
2023/06/22 14:00:58;;;;;;;12.77;6.00;;;;;;;;;;4953091;29;20074;-63
2023/06/22 14:03:24;;;;;;;7.43;5.65;;;;;;;;;;4951582;29;20487;-63
2023/06/22 14:05:53;;;;;;;8.65;6.70;;;;;;;;;;4953005;29;20047;-63
2023/06/22 14:08:20;;;;;;;15.30;8.30;;;;;;;;;;4952302;29;20146;-62
2023/06/22 14:10:46;;;;;;;10.48;7.22;;;;;;;;;;4952844;29;20505;-62
2023/06/22 14:13:12;;;;;;;13.25;7.85;;;;;;;;;;4952479;29;20051;-62
2023/06/22 14:15:38;;;;;;;10.60;7.53;;;;;;;;;;4952885;29;20540;-63
2023/06/22 14:18:04;;;;;;;11.25;7.43;;;;;;;;;;4953081;29;20051;-62
2023/06/22 14:20:30;;;;;;;11.82;8.20;;;;;;;;;;4951570;29;20552;-62